sensor_id;sensor_type;location;lat;lon;timestamp;P1;durP1;ratioP1;P2;durP2;ratioP2
61358;SDS011;47228;46.762;23.598;2023-03-17T00:00:46;260.30;;;58.70;;
61358;SDS011;47228;46.762;23.598;2023-03-17T00:03:21;156.70;;;47.00;;
61358;SDS011;47228;46.762;23.598;2023-03-17T00:05:52;57.70;;;28.10;;
61358;SDS011;47228;46.762;23.598;2023-03-17T00:08:22;49.60;;;22.80;;
61358;SDS011;47228;46.762;23.598;2023-03-17T00:10:53;55.50;;;25.20;;
61358;SDS011;47228;46.762;23.598;2023-03-17T00:13:22;48.30;;;21.20;;
61358;SDS011;47228;46.762;23.598;2023-03-17T00:15:53;50.50;;;22.20;;
61358;SDS011;47228;46.762;23.598;2023-03-17T00:18:29;45.40;;;18.90;;
61358;SDS011;47228;46.762;23.598;2023-03-17T00:20:59;41.70;;;19.10;;
61358;SDS011;47228;46.762;23.598;2023-03-17T00:23:27;36.60;;;17.20;;
61358;SDS011;47228;46.762;23.598;2023-03-17T00:25:56;35.80;;;17.30;;
61358;SDS011;47228;46.762;23.598;2023-03-17T00:28:25;50.60;;;22.10;;
61358;SDS011;47228;46.762;23.598;2023-03-17T00:30:54;64.80;;;25.50;;
61358;SDS011;47228;46.762;23.598;2023-03-17T00:33:25;44.00;;;19.00;;
61358;SDS011;47228;46.762;23.598;2023-03-17T00:35:55;62.20;;;27.80;;
61358;SDS011;47228;46.762;23.598;2023-03-17T00:38:25;46.90;;;20.50;;
61358;SDS011;47228;46.762;23.598;2023-03-17T00:40:53;47.00;;;22.40;;
61358;SDS011;47228;46.762;23.598;2023-03-17T00:43:21;40.80;;;19.90;;
61358;SDS011;47228;46.762;23.598;2023-03-17T00:45:49;37.90;;;17.50;;
61358;SDS011;47228;46.762;23.598;2023-03-17T00:48:18;39.50;;;18.50;;
61358;SDS011;47228;46.762;23.598;2023-03-17T00:50:48;50.00;;;22.30;;
61358;SDS011;47228;46.762;23.598;2023-03-17T00:53:17;44.40;;;21.50;;
61358;SDS011;47228;46.762;23.598;2023-03-17T00:55:50;44.10;;;20.50;;
61358;SDS011;47228;46.762;23.598;2023-03-17T00:58:28;43.50;;;20.80;;
61358;SDS011;47228;46.762;23.598;2023-03-17T01:00:59;36.30;;;17.80;;
61358;SDS011;47228;46.762;23.598;2023-03-17T01:03:28;40.60;;;19.40;;
61358;SDS011;47228;46.762;23.598;2023-03-17T01:05:56;42.50;;;20.50;;
61358;SDS011;47228;46.762;23.598;2023-03-17T01:08:24;43.50;;;21.60;;
61358;SDS011;47228;46.762;23.598;2023-03-17T01:10:53;66.40;;;24.70;;
61358;SDS011;47228;46.762;23.598;2023-03-17T01:13:21;43.10;;;19.60;;
61358;SDS011;47228;46.762;23.598;2023-03-17T01:15:50;35.90;;;16.60;;
61358;SDS011;47228;46.762;23.598;2023-03-17T01:18:20;35.90;;;17.40;;
61358;SDS011;47228;46.762;23.598;2023-03-17T01:20:49;36.50;;;16.90;;
61358;SDS011;47228;46.762;23.598;2023-03-17T01:23:18;33.70;;;16.60;;
61358;SDS011;47228;46.762;23.598;2023-03-17T01:25:46;33.10;;;14.60;;
61358;SDS011;47228;46.762;23.598;2023-03-17T01:28:15;34.90;;;15.80;;
61358;SDS011;47228;46.762;23.598;2023-03-17T01:30:45;32.50;;;15.00;;
61358;SDS011;47228;46.762;23.598;2023-03-17T01:33:14;34.70;;;16.00;;
61358;SDS011;47228;46.762;23.598;2023-03-17T01:35:42;31.70;;;14.20;;
61358;SDS011;47228;46.762;23.598;2023-03-17T01:38:12;35.60;;;15.90;;
61358;SDS011;47228;46.762;23.598;2023-03-17T01:40:42;33.40;;;15.50;;
61358;SDS011;47228;46.762;23.598;2023-03-17T01:43:29;34.30;;;15.70;;
61358;SDS011;47228;46.762;23.598;2023-03-17T01:48:46;34.80;;;14.90;;
61358;SDS011;47228;46.762;23.598;2023-03-17T01:51:29;29.10;;;15.00;;
61358;SDS011;47228;46.762;23.598;2023-03-17T01:54:04;33.90;;;15.40;;
61358;SDS011;47228;46.762;23.598;2023-03-17T01:56:36;41.80;;;15.10;;
61358;SDS011;47228;46.762;23.598;2023-03-17T01:59:08;31.30;;;13.80;;
61358;SDS011;47228;46.762;23.598;2023-03-17T02:01:44;27.80;;;13.50;;
61358;SDS011;47228;46.762;23.598;2023-03-17T02:04:16;30.60;;;12.70;;
61358;SDS011;47228;46.762;23.598;2023-03-17T02:06:46;29.70;;;14.40;;
61358;SDS011;47228;46.762;23.598;2023-03-17T02:09:25;29.90;;;14.00;;
61358;SDS011;47228;46.762;23.598;2023-03-17T02:11:54;28.20;;;13.90;;
61358;SDS011;47228;46.762;23.598;2023-03-17T02:14:25;29.10;;;14.00;;
61358;SDS011;47228;46.762;23.598;2023-03-17T02:16:53;32.80;;;13.40;;
61358;SDS011;47228;46.762;23.598;2023-03-17T02:19:21;30.90;;;14.70;;
61358;SDS011;47228;46.762;23.598;2023-03-17T02:21:52;26.50;;;12.50;;
61358;SDS011;47228;46.762;23.598;2023-03-17T02:24:23;31.10;;;14.40;;
61358;SDS011;47228;46.762;23.598;2023-03-17T02:26:59;29.30;;;13.60;;
61358;SDS011;47228;46.762;23.598;2023-03-17T02:29:32;31.40;;;13.60;;
61358;SDS011;47228;46.762;23.598;2023-03-17T02:32:03;25.90;;;13.50;;
61358;SDS011;47228;46.762;23.598;2023-03-17T02:34:32;29.50;;;13.00;;
61358;SDS011;47228;46.762;23.598;2023-03-17T02:37:00;32.50;;;13.00;;
61358;SDS011;47228;46.762;23.598;2023-03-17T02:39:28;28.50;;;13.90;;
61358;SDS011;47228;46.762;23.598;2023-03-17T02:41:57;33.60;;;14.30;;
61358;SDS011;47228;46.762;23.598;2023-03-17T02:44:25;28.20;;;13.10;;
61358;SDS011;47228;46.762;23.598;2023-03-17T02:46:53;26.30;;;13.20;;
61358;SDS011;47228;46.762;23.598;2023-03-17T02:49:21;28.10;;;12.70;;
61358;SDS011;47228;46.762;23.598;2023-03-17T02:51:51;31.60;;;13.60;;
61358;SDS011;47228;46.762;23.598;2023-03-17T02:54:19;28.90;;;13.40;;
61358;SDS011;47228;46.762;23.598;2023-03-17T02:56:47;30.40;;;13.80;;
61358;SDS011;47228;46.762;23.598;2023-03-17T02:59:15;30.80;;;14.30;;
61358;SDS011;47228;46.762;23.598;2023-03-17T03:01:43;31.30;;;13.00;;
61358;SDS011;47228;46.762;23.598;2023-03-17T03:04:11;28.30;;;14.00;;
61358;SDS011;47228;46.762;23.598;2023-03-17T03:06:39;26.80;;;13.10;;
61358;SDS011;47228;46.762;23.598;2023-03-17T03:09:09;31.40;;;12.50;;
61358;SDS011;47228;46.762;23.598;2023-03-17T03:11:38;26.80;;;13.00;;
61358;SDS011;47228;46.762;23.598;2023-03-17T03:14:06;24.80;;;13.10;;
61358;SDS011;47228;46.762;23.598;2023-03-17T03:16:34;32.20;;;13.90;;
61358;SDS011;47228;46.762;23.598;2023-03-17T03:19:03;31.20;;;15.10;;
61358;SDS011;47228;46.762;23.598;2023-03-17T03:21:31;29.50;;;13.50;;
61358;SDS011;47228;46.762;23.598;2023-03-17T03:23:59;31.60;;;14.60;;
61358;SDS011;47228;46.762;23.598;2023-03-17T03:26:27;29.80;;;13.20;;
61358;SDS011;47228;46.762;23.598;2023-03-17T03:28:55;30.20;;;13.90;;
61358;SDS011;47228;46.762;23.598;2023-03-17T03:31:25;28.90;;;13.30;;
61358;SDS011;47228;46.762;23.598;2023-03-17T03:33:54;28.50;;;12.90;;
61358;SDS011;47228;46.762;23.598;2023-03-17T03:36:22;29.70;;;13.80;;
61358;SDS011;47228;46.762;23.598;2023-03-17T03:38:50;29.80;;;14.30;;
61358;SDS011;47228;46.762;23.598;2023-03-17T03:41:18;30.20;;;12.50;;
61358;SDS011;47228;46.762;23.598;2023-03-17T03:43:46;30.00;;;13.10;;
61358;SDS011;47228;46.762;23.598;2023-03-17T03:46:14;31.80;;;14.30;;
61358;SDS011;47228;46.762;23.598;2023-03-17T03:48:42;33.20;;;14.20;;
61358;SDS011;47228;46.762;23.598;2023-03-17T03:51:10;31.30;;;13.00;;
61358;SDS011;47228;46.762;23.598;2023-03-17T03:53:38;34.10;;;14.60;;
61358;SDS011;47228;46.762;23.598;2023-03-17T03:56:06;47.00;;;17.00;;
61358;SDS011;47228;46.762;23.598;2023-03-17T03:58:34;32.70;;;13.80;;
61358;SDS011;47228;46.762;23.598;2023-03-17T04:01:03;26.00;;;13.00;;
61358;SDS011;47228;46.762;23.598;2023-03-17T04:03:33;38.20;;;15.10;;
61358;SDS011;47228;46.762;23.598;2023-03-17T04:06:01;51.60;;;16.60;;
61358;SDS011;47228;46.762;23.598;2023-03-17T04:08:30;41.90;;;16.20;;
61358;SDS011;47228;46.762;23.598;2023-03-17T04:10:58;116.70;;;32.40;;
61358;SDS011;47228;46.762;23.598;2023-03-17T04:13:26;40.00;;;15.70;;
61358;SDS011;47228;46.762;23.598;2023-03-17T04:15:54;35.80;;;14.20;;
61358;SDS011;47228;46.762;23.598;2023-03-17T04:18:22;27.90;;;12.20;;
61358;SDS011;47228;46.762;23.598;2023-03-17T04:20:50;37.50;;;14.20;;
61358;SDS011;47228;46.762;23.598;2023-03-17T04:23:18;61.10;;;19.40;;
61358;SDS011;47228;46.762;23.598;2023-03-17T04:25:46;30.70;;;14.00;;
61358;SDS011;47228;46.762;23.598;2023-03-17T04:28:16;32.60;;;15.10;;
61358;SDS011;47228;46.762;23.598;2023-03-17T04:30:44;33.10;;;14.30;;
61358;SDS011;47228;46.762;23.598;2023-03-17T04:33:12;33.40;;;14.50;;
61358;SDS011;47228;46.762;23.598;2023-03-17T04:35:40;34.80;;;13.80;;
61358;SDS011;47228;46.762;23.598;2023-03-17T04:38:10;39.80;;;16.90;;
61358;SDS011;47228;46.762;23.598;2023-03-17T04:40:40;39.40;;;15.20;;
61358;SDS011;47228;46.762;23.598;2023-03-17T04:43:08;30.70;;;13.60;;
61358;SDS011;47228;46.762;23.598;2023-03-17T04:45:36;29.70;;;12.50;;
61358;SDS011;47228;46.762;23.598;2023-03-17T04:48:05;34.40;;;14.50;;
61358;SDS011;47228;46.762;23.598;2023-03-17T04:50:32;30.50;;;14.30;;
61358;SDS011;47228;46.762;23.598;2023-03-17T04:53:00;34.20;;;15.00;;
61358;SDS011;47228;46.762;23.598;2023-03-17T04:55:29;35.50;;;15.20;;
61358;SDS011;47228;46.762;23.598;2023-03-17T04:57:57;31.20;;;14.40;;
61358;SDS011;47228;46.762;23.598;2023-03-17T05:00:25;30.40;;;12.70;;
61358;SDS011;47228;46.762;23.598;2023-03-17T05:02:52;29.80;;;13.70;;
61358;SDS011;47228;46.762;23.598;2023-03-17T05:05:20;40.00;;;15.80;;
61358;SDS011;47228;46.762;23.598;2023-03-17T05:07:49;29.00;;;13.30;;
61358;SDS011;47228;46.762;23.598;2023-03-17T05:10:17;30.70;;;13.20;;
61358;SDS011;47228;46.762;23.598;2023-03-17T05:12:45;29.30;;;13.50;;
61358;SDS011;47228;46.762;23.598;2023-03-17T05:15:14;31.70;;;13.30;;
61358;SDS011;47228;46.762;23.598;2023-03-17T05:17:42;31.30;;;13.50;;
61358;SDS011;47228;46.762;23.598;2023-03-17T05:20:10;38.50;;;15.60;;
61358;SDS011;47228;46.762;23.598;2023-03-17T05:22:39;30.80;;;13.60;;
61358;SDS011;47228;46.762;23.598;2023-03-17T05:25:07;62.90;;;20.70;;
61358;SDS011;47228;46.762;23.598;2023-03-17T05:27:35;45.80;;;17.30;;
61358;SDS011;47228;46.762;23.598;2023-03-17T05:30:04;115.20;;;29.50;;
61358;SDS011;47228;46.762;23.598;2023-03-17T05:32:32;41.80;;;15.10;;
61358;SDS011;47228;46.762;23.598;2023-03-17T05:35:00;30.30;;;14.30;;
61358;SDS011;47228;46.762;23.598;2023-03-17T05:37:30;35.50;;;13.70;;
61358;SDS011;47228;46.762;23.598;2023-03-17T05:39:58;34.00;;;13.80;;
61358;SDS011;47228;46.762;23.598;2023-03-17T05:42:25;30.90;;;13.80;;
61358;SDS011;47228;46.762;23.598;2023-03-17T05:44:54;32.00;;;13.10;;
61358;SDS011;47228;46.762;23.598;2023-03-17T05:47:21;30.00;;;14.40;;
61358;SDS011;47228;46.762;23.598;2023-03-17T05:49:50;32.20;;;13.80;;
61358;SDS011;47228;46.762;23.598;2023-03-17T05:52:18;32.00;;;14.20;;
61358;SDS011;47228;46.762;23.598;2023-03-17T05:54:46;29.20;;;12.70;;
61358;SDS011;47228;46.762;23.598;2023-03-17T05:57:15;28.90;;;14.20;;
61358;SDS011;47228;46.762;23.598;2023-03-17T05:59:43;35.40;;;15.10;;
61358;SDS011;47228;46.762;23.598;2023-03-17T06:02:12;31.40;;;14.50;;
61358;SDS011;47228;46.762;23.598;2023-03-17T06:04:41;42.90;;;16.20;;
61358;SDS011;47228;46.762;23.598;2023-03-17T06:07:09;31.00;;;13.50;;
61358;SDS011;47228;46.762;23.598;2023-03-17T06:09:38;34.40;;;14.40;;
61358;SDS011;47228;46.762;23.598;2023-03-17T06:12:06;30.20;;;15.10;;
61358;SDS011;47228;46.762;23.598;2023-03-17T06:14:35;32.10;;;14.40;;
61358;SDS011;47228;46.762;23.598;2023-03-17T06:17:03;29.90;;;13.30;;
61358;SDS011;47228;46.762;23.598;2023-03-17T06:19:31;35.60;;;16.30;;
61358;SDS011;47228;46.762;23.598;2023-03-17T06:21:59;31.50;;;14.00;;
61358;SDS011;47228;46.762;23.598;2023-03-17T06:24:27;37.20;;;15.90;;
61358;SDS011;47228;46.762;23.598;2023-03-17T06:26:55;31.00;;;14.40;;
61358;SDS011;47228;46.762;23.598;2023-03-17T06:29:23;35.30;;;14.80;;
61358;SDS011;47228;46.762;23.598;2023-03-17T06:31:51;29.40;;;14.10;;
61358;SDS011;47228;46.762;23.598;2023-03-17T06:34:20;33.20;;;15.90;;
61358;SDS011;47228;46.762;23.598;2023-03-17T06:36:49;33.80;;;15.30;;
61358;SDS011;47228;46.762;23.598;2023-03-17T06:39:17;35.00;;;14.90;;
61358;SDS011;47228;46.762;23.598;2023-03-17T06:41:45;33.10;;;15.60;;
61358;SDS011;47228;46.762;23.598;2023-03-17T06:44:13;33.90;;;15.30;;
61358;SDS011;47228;46.762;23.598;2023-03-17T06:46:41;37.80;;;17.30;;
61358;SDS011;47228;46.762;23.598;2023-03-17T06:49:09;39.10;;;15.50;;
61358;SDS011;47228;46.762;23.598;2023-03-17T06:51:39;38.90;;;18.90;;
61358;SDS011;47228;46.762;23.598;2023-03-17T06:54:07;30.60;;;15.00;;
61358;SDS011;47228;46.762;23.598;2023-03-17T06:56:35;39.00;;;16.00;;
61358;SDS011;47228;46.762;23.598;2023-03-17T06:59:03;36.30;;;15.80;;
61358;SDS011;47228;46.762;23.598;2023-03-17T07:01:31;30.20;;;14.90;;
61358;SDS011;47228;46.762;23.598;2023-03-17T07:04:00;37.00;;;15.60;;
61358;SDS011;47228;46.762;23.598;2023-03-17T07:06:28;39.70;;;16.90;;
61358;SDS011;47228;46.762;23.598;2023-03-17T07:08:56;34.30;;;16.60;;
61358;SDS011;47228;46.762;23.598;2023-03-17T07:11:24;31.90;;;16.10;;
61358;SDS011;47228;46.762;23.598;2023-03-17T07:13:52;32.20;;;14.40;;
61358;SDS011;47228;46.762;23.598;2023-03-17T07:16:20;33.20;;;16.00;;
61358;SDS011;47228;46.762;23.598;2023-03-17T07:18:49;36.40;;;16.60;;
61358;SDS011;47228;46.762;23.598;2023-03-17T07:21:17;32.70;;;15.00;;
61358;SDS011;47228;46.762;23.598;2023-03-17T07:23:45;27.80;;;13.90;;
61358;SDS011;47228;46.762;23.598;2023-03-17T07:26:13;35.90;;;14.80;;
61358;SDS011;47228;46.762;23.598;2023-03-17T07:28:41;29.60;;;13.20;;
61358;SDS011;47228;46.762;23.598;2023-03-17T07:31:08;31.90;;;12.70;;
61358;SDS011;47228;46.762;23.598;2023-03-17T07:33:40;24.10;;;11.40;;
61358;SDS011;47228;46.762;23.598;2023-03-17T07:36:08;22.30;;;8.50;;
61358;SDS011;47228;46.762;23.598;2023-03-17T07:38:37;19.60;;;9.50;;
61358;SDS011;47228;46.762;23.598;2023-03-17T07:41:05;19.40;;;8.80;;
61358;SDS011;47228;46.762;23.598;2023-03-17T07:43:36;24.30;;;8.60;;
61358;SDS011;47228;46.762;23.598;2023-03-17T07:46:04;26.00;;;10.80;;
61358;SDS011;47228;46.762;23.598;2023-03-17T07:48:33;27.20;;;10.90;;
61358;SDS011;47228;46.762;23.598;2023-03-17T07:51:04;21.20;;;10.20;;
61358;SDS011;47228;46.762;23.598;2023-03-17T07:53:32;26.60;;;11.60;;
61358;SDS011;47228;46.762;23.598;2023-03-17T07:56:00;26.30;;;10.80;;
61358;SDS011;47228;46.762;23.598;2023-03-17T07:58:27;24.70;;;10.40;;
61358;SDS011;47228;46.762;23.598;2023-03-17T08:00:56;22.40;;;10.30;;
61358;SDS011;47228;46.762;23.598;2023-03-17T08:03:24;22.00;;;10.50;;
61358;SDS011;47228;46.762;23.598;2023-03-17T08:05:52;19.70;;;9.90;;
61358;SDS011;47228;46.762;23.598;2023-03-17T08:08:23;23.50;;;10.40;;
61358;SDS011;47228;46.762;23.598;2023-03-17T08:10:52;22.20;;;9.50;;
61358;SDS011;47228;46.762;23.598;2023-03-17T08:13:24;24.60;;;9.40;;
61358;SDS011;47228;46.762;23.598;2023-03-17T08:15:52;20.10;;;9.20;;
61358;SDS011;47228;46.762;23.598;2023-03-17T08:18:20;20.90;;;9.30;;
61358;SDS011;47228;46.762;23.598;2023-03-17T08:20:48;22.30;;;9.60;;
61358;SDS011;47228;46.762;23.598;2023-03-17T08:23:18;25.80;;;11.20;;
61358;SDS011;47228;46.762;23.598;2023-03-17T08:25:47;27.60;;;10.90;;
61358;SDS011;47228;46.762;23.598;2023-03-17T08:28:15;32.20;;;11.30;;
61358;SDS011;47228;46.762;23.598;2023-03-17T08:30:43;17.30;;;7.60;;
61358;SDS011;47228;46.762;23.598;2023-03-17T08:33:12;17.80;;;7.20;;
61358;SDS011;47228;46.762;23.598;2023-03-17T08:35:40;12.20;;;5.60;;
61358;SDS011;47228;46.762;23.598;2023-03-17T08:38:08;10.50;;;5.30;;
61358;SDS011;47228;46.762;23.598;2023-03-17T08:40:38;17.50;;;6.70;;
61358;SDS011;47228;46.762;23.598;2023-03-17T08:43:07;13.80;;;5.60;;
61358;SDS011;47228;46.762;23.598;2023-03-17T08:45:35;19.30;;;6.80;;
61358;SDS011;47228;46.762;23.598;2023-03-17T08:48:05;18.80;;;7.60;;
61358;SDS011;47228;46.762;23.598;2023-03-17T08:50:33;17.10;;;6.60;;
61358;SDS011;47228;46.762;23.598;2023-03-17T08:53:01;16.70;;;6.70;;
61358;SDS011;47228;46.762;23.598;2023-03-17T08:55:30;15.30;;;6.10;;
61358;SDS011;47228;46.762;23.598;2023-03-17T08:57:58;17.60;;;6.40;;
61358;SDS011;47228;46.762;23.598;2023-03-17T09:00:26;14.90;;;5.10;;
61358;SDS011;47228;46.762;23.598;2023-03-17T09:02:54;16.30;;;5.10;;
61358;SDS011;47228;46.762;23.598;2023-03-17T09:05:24;16.10;;;5.30;;
61358;SDS011;47228;46.762;23.598;2023-03-17T09:07:53;12.60;;;4.90;;
61358;SDS011;47228;46.762;23.598;2023-03-17T09:10:21;13.50;;;4.90;;
61358;SDS011;47228;46.762;23.598;2023-03-17T09:12:50;13.30;;;5.40;;
61358;SDS011;47228;46.762;23.598;2023-03-17T09:15:18;14.90;;;5.70;;
61358;SDS011;47228;46.762;23.598;2023-03-17T09:17:46;21.30;;;6.70;;
61358;SDS011;47228;46.762;23.598;2023-03-17T09:20:14;13.30;;;6.00;;
61358;SDS011;47228;46.762;23.598;2023-03-17T09:22:42;14.10;;;6.20;;
61358;SDS011;47228;46.762;23.598;2023-03-17T09:25:10;11.10;;;5.30;;
61358;SDS011;47228;46.762;23.598;2023-03-17T09:27:38;16.30;;;5.40;;
61358;SDS011;47228;46.762;23.598;2023-03-17T09:30:07;14.10;;;5.80;;
61358;SDS011;47228;46.762;23.598;2023-03-17T09:32:37;13.40;;;5.20;;
61358;SDS011;47228;46.762;23.598;2023-03-17T09:35:06;11.30;;;5.60;;
61358;SDS011;47228;46.762;23.598;2023-03-17T09:37:34;11.50;;;4.60;;
61358;SDS011;47228;46.762;23.598;2023-03-17T09:40:02;9.60;;;4.60;;
61358;SDS011;47228;46.762;23.598;2023-03-17T09:42:41;11.80;;;4.60;;
61358;SDS011;47228;46.762;23.598;2023-03-17T09:50:37;9.20;;;4.40;;
61358;SDS011;47228;46.762;23.598;2023-03-17T09:53:17;9.30;;;4.10;;
61358;SDS011;47228;46.762;23.598;2023-03-17T09:55:51;10.80;;;4.10;;
61358;SDS011;47228;46.762;23.598;2023-03-17T09:58:27;17.50;;;5.00;;
61358;SDS011;47228;46.762;23.598;2023-03-17T10:00:58;28.30;;;9.20;;
61358;SDS011;47228;46.762;23.598;2023-03-17T10:03:28;26.30;;;8.30;;
61358;SDS011;47228;46.762;23.598;2023-03-17T10:06:16;18.00;;;6.80;;
61358;SDS011;47228;46.762;23.598;2023-03-17T10:08:56;14.80;;;6.90;;
61358;SDS011;47228;46.762;23.598;2023-03-17T10:17:11;10.70;;;4.00;;
61358;SDS011;47228;46.762;23.598;2023-03-17T10:19:44;11.40;;;3.50;;
61358;SDS011;47228;46.762;23.598;2023-03-17T10:22:23;9.30;;;3.20;;
61358;SDS011;47228;46.762;23.598;2023-03-17T10:25:11;7.00;;;4.30;;
61358;SDS011;47228;46.762;23.598;2023-03-17T10:27:50;8.10;;;3.60;;
61358;SDS011;47228;46.762;23.598;2023-03-17T10:30:26;10.20;;;3.20;;
61358;SDS011;47228;46.762;23.598;2023-03-17T10:32:58;8.70;;;3.60;;
61358;SDS011;47228;46.762;23.598;2023-03-17T10:35:29;8.30;;;3.60;;
61358;SDS011;47228;46.762;23.598;2023-03-17T10:38:21;10.20;;;3.30;;
61358;SDS011;47228;46.762;23.598;2023-03-17T10:40:56;8.40;;;3.40;;
61358;SDS011;47228;46.762;23.598;2023-03-17T10:43:40;7.30;;;3.60;;
61358;SDS011;47228;46.762;23.598;2023-03-17T10:46:18;8.50;;;3.00;;
61358;SDS011;47228;46.762;23.598;2023-03-17T10:48:50;9.40;;;3.60;;
61358;SDS011;47228;46.762;23.598;2023-03-17T10:51:21;10.30;;;3.70;;
61358;SDS011;47228;46.762;23.598;2023-03-17T10:54:00;13.10;;;4.00;;
61358;SDS011;47228;46.762;23.598;2023-03-17T10:56:35;11.30;;;3.10;;
61358;SDS011;47228;46.762;23.598;2023-03-17T10:59:07;9.80;;;3.60;;
61358;SDS011;47228;46.762;23.598;2023-03-17T11:01:46;8.10;;;3.30;;
61358;SDS011;47228;46.762;23.598;2023-03-17T11:06:54;6.70;;;3.70;;
61358;SDS011;47228;46.762;23.598;2023-03-17T11:09:25;9.80;;;3.60;;
61358;SDS011;47228;46.762;23.598;2023-03-17T11:12:01;10.50;;;4.00;;
61358;SDS011;47228;46.762;23.598;2023-03-17T11:14:29;10.30;;;3.60;;
61358;SDS011;47228;46.762;23.598;2023-03-17T11:23:00;7.20;;;3.10;;
61358;SDS011;47228;46.762;23.598;2023-03-17T11:25:09;10.00;;;3.00;;
61358;SDS011;47228;46.762;23.598;2023-03-17T11:27:47;7.30;;;3.50;;
61358;SDS011;47228;46.762;23.598;2023-03-17T11:30:24;7.90;;;3.30;;
61358;SDS011;47228;46.762;23.598;2023-03-17T11:33:09;8.00;;;3.40;;
61358;SDS011;47228;46.762;23.598;2023-03-17T11:43:51;10.90;;;3.80;;
61358;SDS011;47228;46.762;23.598;2023-03-17T11:49:36;9.70;;;2.90;;
61358;SDS011;47228;46.762;23.598;2023-03-17T11:52:18;6.70;;;2.90;;
61358;SDS011;47228;46.762;23.598;2023-03-17T12:00:13;8.20;;;3.70;;
61358;SDS011;47228;46.762;23.598;2023-03-17T12:02:55;9.60;;;3.60;;
61358;SDS011;47228;46.762;23.598;2023-03-17T12:05:31;6.60;;;3.10;;
61358;SDS011;47228;46.762;23.598;2023-03-17T12:08:09;5.50;;;2.70;;
61358;SDS011;47228;46.762;23.598;2023-03-17T12:10:58;8.80;;;3.10;;
61358;SDS011;47228;46.762;23.598;2023-03-17T12:16:08;10.50;;;3.10;;
61358;SDS011;47228;46.762;23.598;2023-03-17T12:23:51;8.00;;;3.40;;
61358;SDS011;47228;46.762;23.598;2023-03-17T12:32:25;9.00;;;3.30;;
61358;SDS011;47228;46.762;23.598;2023-03-17T12:37:51;9.30;;;3.70;;
61358;SDS011;47228;46.762;23.598;2023-03-17T12:40:22;9.90;;;3.30;;
61358;SDS011;47228;46.762;23.598;2023-03-17T12:46:45;8.20;;;3.80;;
61358;SDS011;47228;46.762;23.598;2023-03-17T12:54:35;8.60;;;4.00;;
61358;SDS011;47228;46.762;23.598;2023-03-17T12:57:09;6.20;;;3.80;;
61358;SDS011;47228;46.762;23.598;2023-03-17T12:59:42;6.00;;;3.00;;
61358;SDS011;47228;46.762;23.598;2023-03-17T13:04:41;5.80;;;2.80;;
61358;SDS011;47228;46.762;23.598;2023-03-17T13:07:18;7.90;;;3.60;;
61358;SDS011;47228;46.762;23.598;2023-03-17T13:15:20;9.80;;;3.80;;
61358;SDS011;47228;46.762;23.598;2023-03-17T13:18:09;10.00;;;4.10;;
61358;SDS011;47228;46.762;23.598;2023-03-17T13:26:48;9.60;;;3.90;;
61358;SDS011;47228;46.762;23.598;2023-03-17T13:35:17;10.10;;;3.90;;
61358;SDS011;47228;46.762;23.598;2023-03-17T13:49:26;11.40;;;4.30;;
61358;SDS011;47228;46.762;23.598;2023-03-17T13:52:02;8.70;;;4.30;;
61358;SDS011;47228;46.762;23.598;2023-03-17T13:57:53;11.40;;;4.60;;
61358;SDS011;47228;46.762;23.598;2023-03-17T14:00:27;9.60;;;3.70;;
61358;SDS011;47228;46.762;23.598;2023-03-17T14:03:04;11.50;;;4.50;;
61358;SDS011;47228;46.762;23.598;2023-03-17T14:05:38;9.60;;;3.80;;
61358;SDS011;47228;46.762;23.598;2023-03-17T14:08:15;10.10;;;4.40;;
61358;SDS011;47228;46.762;23.598;2023-03-17T14:10:59;8.70;;;4.30;;
61358;SDS011;47228;46.762;23.598;2023-03-17T14:16:14;9.70;;;4.30;;
61358;SDS011;47228;46.762;23.598;2023-03-17T14:18:47;9.40;;;4.30;;
61358;SDS011;47228;46.762;23.598;2023-03-17T14:21:21;7.50;;;4.00;;
61358;SDS011;47228;46.762;23.598;2023-03-17T14:23:59;9.00;;;4.20;;
61358;SDS011;47228;46.762;23.598;2023-03-17T14:26:29;11.30;;;3.80;;
61358;SDS011;47228;46.762;23.598;2023-03-17T14:28:59;13.10;;;3.90;;
61358;SDS011;47228;46.762;23.598;2023-03-17T14:31:29;7.10;;;3.50;;
61358;SDS011;47228;46.762;23.598;2023-03-17T14:33:58;12.00;;;3.90;;
61358;SDS011;47228;46.762;23.598;2023-03-17T14:36:27;10.10;;;3.90;;
61358;SDS011;47228;46.762;23.598;2023-03-17T14:39:00;11.10;;;3.90;;
61358;SDS011;47228;46.762;23.598;2023-03-17T14:41:28;9.70;;;3.80;;
61358;SDS011;47228;46.762;23.598;2023-03-17T14:43:57;8.10;;;4.10;;
61358;SDS011;47228;46.762;23.598;2023-03-17T14:46:33;7.50;;;3.50;;
61358;SDS011;47228;46.762;23.598;2023-03-17T14:49:11;7.10;;;3.40;;
61358;SDS011;47228;46.762;23.598;2023-03-17T14:51:47;6.80;;;3.50;;
61358;SDS011;47228;46.762;23.598;2023-03-17T14:56:51;7.40;;;3.40;;
61358;SDS011;47228;46.762;23.598;2023-03-17T14:59:32;9.20;;;4.20;;
61358;SDS011;47228;46.762;23.598;2023-03-17T15:02:06;8.60;;;3.30;;
61358;SDS011;47228;46.762;23.598;2023-03-17T15:04:51;7.50;;;3.70;;
61358;SDS011;47228;46.762;23.598;2023-03-17T15:07:41;6.80;;;3.30;;
61358;SDS011;47228;46.762;23.598;2023-03-17T15:10:25;6.90;;;3.40;;
61358;SDS011;47228;46.762;23.598;2023-03-17T15:13:01;8.20;;;3.40;;
61358;SDS011;47228;46.762;23.598;2023-03-17T15:15:36;6.90;;;3.10;;
61358;SDS011;47228;46.762;23.598;2023-03-17T15:18:06;10.50;;;3.90;;
61358;SDS011;47228;46.762;23.598;2023-03-17T15:23:19;10.40;;;4.00;;
61358;SDS011;47228;46.762;23.598;2023-03-17T15:25:51;9.90;;;3.90;;
61358;SDS011;47228;46.762;23.598;2023-03-17T15:28:26;8.10;;;3.80;;
61358;SDS011;47228;46.762;23.598;2023-03-17T15:30:58;9.30;;;3.90;;
61358;SDS011;47228;46.762;23.598;2023-03-17T15:33:38;9.40;;;4.40;;
61358;SDS011;47228;46.762;23.598;2023-03-17T15:36:13;10.40;;;4.60;;
61358;SDS011;47228;46.762;23.598;2023-03-17T15:38:59;7.90;;;4.40;;
61358;SDS011;47228;46.762;23.598;2023-03-17T15:41:27;7.40;;;3.90;;
61358;SDS011;47228;46.762;23.598;2023-03-17T15:43:55;10.90;;;4.00;;
61358;SDS011;47228;46.762;23.598;2023-03-17T15:46:24;10.70;;;4.30;;
61358;SDS011;47228;46.762;23.598;2023-03-17T15:48:54;7.30;;;4.10;;
61358;SDS011;47228;46.762;23.598;2023-03-17T15:51:22;8.80;;;3.70;;
61358;SDS011;47228;46.762;23.598;2023-03-17T15:53:50;7.90;;;3.90;;
61358;SDS011;47228;46.762;23.598;2023-03-17T15:56:19;9.50;;;4.10;;
61358;SDS011;47228;46.762;23.598;2023-03-17T15:58:48;8.60;;;3.80;;
61358;SDS011;47228;46.762;23.598;2023-03-17T16:01:19;9.40;;;3.70;;
61358;SDS011;47228;46.762;23.598;2023-03-17T16:03:48;8.00;;;3.70;;
61358;SDS011;47228;46.762;23.598;2023-03-17T16:15:45;8.40;;;3.70;;
61358;SDS011;47228;46.762;23.598;2023-03-17T16:19:31;13.20;;;6.10;;
61358;SDS011;47228;46.762;23.598;2023-03-17T16:22:41;12.50;;;6.10;;
61358;SDS011;47228;46.762;23.598;2023-03-17T16:25:16;12.00;;;5.20;;
61358;SDS011;47228;46.762;23.598;2023-03-17T16:27:45;11.30;;;4.80;;
61358;SDS011;47228;46.762;23.598;2023-03-17T16:30:15;12.20;;;4.10;;
61358;SDS011;47228;46.762;23.598;2023-03-17T16:32:46;11.70;;;5.70;;
61358;SDS011;47228;46.762;23.598;2023-03-17T16:35:19;12.70;;;6.30;;